Shelby — WCV6157 — position and weather

sailwx.info

Track history (hours):
 
Tides and Currents Weather Stations Pressure Air Temp Water Temp Dewpoint Dewpoint Depression Visibility Wind Speed Wind Dir Waves Ship Positions

Shelby

Owner: WEEKS MARINE, INC., CRANFORD, NJ. More information available from US FCC via Universal Licensing System and Coast Guard Vessel Documentation Center.

Last reported at 2016-Dec-03 13:33 UTC. Time now 2016-Dec-03 13:44 UTC.
Position N 39°44' W 075°30'.

Length 22 m; draft 3.1 m.

Type: Tug. MMSI: 366902344.

Date/timePositionNaut miles runAvg speedWind from/ knotsBaromVisibWave heightAir tempDewpointWater temp
2016-Dec-03 13:33N 39°44' W 075°30'0 0.0
2016-Dec-03 12:33N 39°44' W 075°30'0 0.0
2016-Dec-03 11:33N 39°44' W 075°30'0 0.1
2016-Dec-03 10:33N 39°44' W 075°30'0 0.1
2016-Dec-03 09:33N 39°44' W 075°30'0 0.0
2016-Dec-03 08:33N 39°44' W 075°30'0 0.0
2016-Dec-03 07:33N 39°44' W 075°30'0 0.1
2016-Dec-03 06:34N 39°44' W 075°30'0 0.1
2016-Dec-03 05:33N 39°44' W 075°30'0 0.0
2016-Dec-03 04:33N 39°44' W 075°30'0 0.0
2016-Dec-03 03:33N 39°44' W 075°30'5 4.5
2016-Dec-03 02:33N 39°48' W 075°26'5 4.5
2016-Dec-03 01:33N 39°44' W 075°30'0 0.1
2016-Dec-03 00:33N 39°44' W 075°30'0 0.2
2016-Dec-02 23:33N 39°44' W 075°30'0 0.1
2016-Dec-02 22:33N 39°44' W 075°30'5 4.7
2016-Dec-02 21:33N 39°48' W 075°26'6 5.7
2016-Dec-02 20:33N 39°51' W 075°19'5 5.0
2016-Dec-02 19:33N 39°52' W 075°13'5 4.9
2016-Dec-02 18:33N 39°55' W 075°08'3 2.7
2016-Dec-02 17:33N 39°57' W 075°08'0 0.0
2016-Dec-02 16:34N 39°57' W 075°08'0 0.0
2016-Dec-02 15:33N 39°57' W 075°08'0 0.0
2016-Dec-02 14:33N 39°57' W 075°08'0 0.0
2016-Dec-02 13:33N 39°57' W 075°08'0 0.0
2016-Dec-02 12:33N 39°57' W 075°08'0 0.0
2016-Dec-02 11:33N 39°57' W 075°08'0 0.0
2016-Dec-02 10:34N 39°57' W 075°08'0 0.0
2016-Dec-02 09:33N 39°57' W 075°08'0 0.0
2016-Dec-02 08:33N 39°57' W 075°08'1 1.2
2016-Dec-02 07:33N 39°58' W 075°07'5 4.6
2016-Dec-02 06:33N 40°01' W 075°02'2 1.9
2016-Dec-02 05:33N 40°02' W 074°60'0 0.0
2016-Dec-02 04:33N 40°02' W 074°60'0 0.0
2016-Dec-02 03:33N 40°02' W 074°60'0 0.0
2016-Dec-02 02:33N 40°02' W 074°60'0 0.0
2016-Dec-02 01:33N 40°02' W 074°60'0 0.0
2016-Dec-02 00:33N 40°02' W 074°60'0 0.0
2016-Dec-01 23:34N 40°02' W 074°60'0 0.0
2016-Dec-01 22:33N 40°02' W 074°60'0 0.0
2016-Dec-01 21:33N 40°02' W 074°60'0 0.0
2016-Dec-01 20:33N 40°02' W 074°60'0 0.0
2016-Dec-01 19:33N 40°02' W 074°60'0 0.0
2016-Dec-01 18:33N 40°02' W 074°60'0 0.0
2016-Dec-01 17:33N 40°02' W 074°60'0 0.0
2016-Dec-01 16:33N 40°02' W 074°60'0 0.0
2016-Dec-01 15:33N 40°02' W 074°60'0 0.0
2016-Dec-01 14:33N 40°02' W 074°60'0 0.0
2016-Dec-01 13:33N 40°02' W 074°60'0 0.0
2016-Dec-01 12:33N 40°02' W 074°60'0 0.0
2016-Dec-01 11:33N 40°02' W 074°60'0 0.0
2016-Dec-01 10:33N 40°02' W 074°60'0 0.0
2016-Dec-01 09:33N 40°02' W 074°60'0 0.0
2016-Dec-01 08:33N 40°02' W 074°60'0 0.0
2016-Dec-01 07:33N 40°02' W 074°60'0 0.1
2016-Dec-01 06:33N 40°02' W 074°60'0 0.1
2016-Dec-01 05:33N 40°02' W 074°60'0 0.0
2016-Dec-01 04:33N 40°02' W 074°60'0 0.0
2016-Dec-01 03:33N 40°02' W 074°60'0 0.0
2016-Dec-01 02:33N 40°02' W 074°60'0 0.0
2016-Dec-01 01:33N 40°02' W 074°60'0 0.0
2016-Dec-01 00:33N 40°02' W 074°60'0 0.0
2016-Nov-30 23:33N 40°02' W 074°60'0 0.0
2016-Nov-30 22:33N 40°02' W 074°60'0 0.0
2016-Nov-30 21:33N 40°02' W 074°60'0 0.0
2016-Nov-30 20:33N 40°02' W 074°60'0 0.0
2016-Nov-30 19:33N 40°02' W 074°60'0 0.2
2016-Nov-30 18:33N 40°02' W 074°60'0 0.1
2016-Nov-30 17:33N 40°02' W 074°60'0 0.1
2016-Nov-30 16:33N 40°02' W 074°60'0 0.0
2016-Nov-30 15:33N 40°02' W 074°60'0 0.0
2016-Nov-30 14:34N 40°02' W 074°60'0 0.0
2016-Nov-30 13:33N 40°02' W 074°60'0 0.0
2016-Nov-30 12:33N 40°02' W 074°60'0 0.0
2016-Nov-30 11:33N 40°02' W 074°60'0 0.0
2016-Nov-30 10:33N 40°02' W 074°60'0 0.0
2016-Nov-30 09:33N 40°02' W 074°60'0 0.0
2016-Nov-30 07:32N 40°02' W 074°60'0 0.0
2016-Nov-30 05:22N 40°02' W 074°60'0 0.0
2016-Nov-30 04:33N 40°02' W 074°60'0 0.0
2016-Nov-30 03:33N 40°02' W 074°60'0 0.0
2016-Nov-30 02:33N 40°02' W 074°60'0 0.0
2016-Nov-30 01:34N 40°02' W 074°60'0 0.0
2016-Nov-30 00:33N 40°02' W 074°60'0 0.0
2016-Nov-29 23:33N 40°02' W 074°60'0 0.0
2016-Nov-29 22:33N 40°02' W 074°60'0 0.0
2016-Nov-29 21:33N 40°02' W 074°60'0 0.0
2016-Nov-29 20:33N 40°02' W 074°60'0 0.0
2016-Nov-29 19:33N 40°02' W 074°60'0 0.0
2016-Nov-29 18:33N 40°02' W 074°60'0 0.1
2016-Nov-29 17:33N 40°02' W 074°60'0 0.0
2016-Nov-29 16:33N 40°02' W 074°60'0 0.0
2016-Nov-29 15:33N 40°02' W 074°60'0 0.0
2016-Nov-29 14:33N 40°02' W 074°60'0 0.0
2016-Nov-29 13:33N 40°02' W 074°60'0 0.0
2016-Nov-29 12:33N 40°02' W 074°60'0 0.3
2016-Nov-29 11:33N 40°02' W 075°00'4 3.7
2016-Nov-29 10:34N 39°59' W 075°04'4 3.6
2016-Nov-29 09:33N 39°57' W 075°08'0 0.0
2016-Nov-29 08:33N 39°57' W 075°08'0 0.0
2016-Nov-29 07:33N 39°57' W 075°08'0 0.0
2016-Nov-29 06:33N 39°57' W 075°08'0 0.0
2016-Nov-29 05:33N 39°57' W 075°08'0 0.0
2016-Nov-29 04:33N 39°57' W 075°08'0 0.0
2016-Nov-29 03:33N 39°57' W 075°08'0 0.0
2016-Nov-29 02:33N 39°57' W 075°08'0 0.0
2016-Nov-29 01:33N 39°57' W 075°08'0 0.0
2016-Nov-29 00:33N 39°57' W 075°08'0 0.0
2016-Nov-28 23:33N 39°57' W 075°08'0 0.0
2016-Nov-28 22:33N 39°57' W 075°08'0 0.0
2016-Nov-28 21:33N 39°57' W 075°08'0 0.0
2016-Nov-28 20:33N 39°57' W 075°08'0 0.0
2016-Nov-28 19:33N 39°57' W 075°08'0 0.0
2016-Nov-28 18:34N 39°57' W 075°08'0 0.0
2016-Nov-28 17:33N 39°57' W 075°08'0 0.0
2016-Nov-28 16:34N 39°57' W 075°08'0 0.0
2016-Nov-28 15:33N 39°57' W 075°08'0 0.0
2016-Nov-28 14:33N 39°57' W 075°08'0 0.0
2016-Nov-28 13:33N 39°57' W 075°08'0 0.0
2016-Nov-28 12:33N 39°57' W 075°08'0 0.0
2016-Nov-28 11:33N 39°57' W 075°08'0 0.0
2016-Nov-28 10:33N 39°57' W 075°08'0 0.0
2016-Nov-28 09:33N 39°57' W 075°08'0 0.0
2016-Nov-28 08:34N 39°57' W 075°08'0 0.0
2016-Nov-28 07:33N 39°57' W 075°08'0 0.0
2016-Nov-28 06:33N 39°57' W 075°08'3 3.4
2016-Nov-28 05:33N 39°54' W 075°08'1110.6
2016-Nov-28 04:33N 39°50' W 075°21'1 1.1
2016-Nov-28 03:33N 39°50' W 075°22'0 0.2
2016-Nov-28 02:33N 39°50' W 075°22'2 2.1
2016-Nov-28 01:33N 39°48' W 075°24'2 2.1
2016-Nov-28 00:33N 39°50' W 075°22'2 1.5
2016-Nov-27 23:34N 39°49' W 075°23'5 4.6
2016-Nov-27 22:33N 39°46' W 075°28'5 5.4
2016-Nov-27 21:33N 39°41' W 075°31'5 5.1
2016-Nov-27 20:33N 39°37' W 075°35'9 9.1
2016-Nov-27 19:33N 39°45' W 075°29'7 7.4
2016-Nov-27 18:33N 39°50' W 075°22'0 0.0
2016-Nov-27 17:33N 39°50' W 075°22'0 0.2
2016-Nov-27 16:31N 39°49' W 075°22'2 2.2
2016-Nov-27 15:34N 39°48' W 075°24'6 6.4
2016-Nov-27 14:33N 39°44' W 075°30'8 8.4
2016-Nov-27 13:33N 39°36' W 075°34'9 8.6
2016-Nov-27 12:33N 39°28' W 075°34'8 8.4
2016-Nov-27 11:33N 39°21' W 075°27'9 8.6
2016-Nov-27 10:33N 39°15' W 075°19'8 8.3
2016-Nov-27 09:33N 39°08' W 075°14'52 5.2
2016-Nov-26 23:33N 39°30' W 074°13'9 8.8
2016-Nov-26 22:33N 39°37' W 074°07'9 8.7
2016-Nov-26 21:33N 39°46' W 074°04'43 8.7
2016-Nov-26 16:33N 40°29' W 073°58'8 8.6
2016-Nov-26 15:33N 40°36' W 074°03'4 4.1
2016-Nov-26 14:33N 40°40' W 074°04'0 0.2
2016-Nov-26 13:33N 40°40' W 074°04'1 1.2
2016-Nov-26 12:34N 40°39' W 074°03'1 1.2
2016-Nov-26 11:33N 40°41' W 074°04'0 0.1
2016-Nov-26 10:33N 40°40' W 074°04'0 0.0
2016-Nov-26 09:33N 40°40' W 074°04'0 0.0
2016-Nov-26 08:33N 40°40' W 074°04'0 0.0
2016-Nov-26 07:33N 40°40' W 074°04'0 0.0
2016-Nov-26 06:33N 40°40' W 074°04'0 0.0
2016-Nov-26 05:33N 40°40' W 074°04'0 0.0
2016-Nov-26 04:33N 40°40' W 074°04'0 0.0
2016-Nov-26 03:33N 40°40' W 074°04'0 0.1
2016-Nov-26 02:34N 40°41' W 074°04'0 0.1
2016-Nov-26 01:33N 40°40' W 074°04'0 0.0
2016-Nov-26 00:33N 40°40' W 074°04'0 0.0
2016-Nov-25 23:33N 40°40' W 074°04'0 0.1
2016-Nov-25 22:33N 40°40' W 074°04'0 0.0
2016-Nov-25 21:34N 40°40' W 074°04'0 0.1
2016-Nov-25 20:33N 40°41' W 074°04'4 4.2
2016-Nov-25 19:33N 40°42' W 073°59'5 5.2
2016-Nov-25 18:32N 40°47' W 073°55'1 1.5
2016-Nov-25 17:32N 40°47' W 073°54'0 0.0
2016-Nov-25 16:33N 40°47' W 073°54'0 0.0
2016-Nov-25 15:33N 40°47' W 073°54'0 0.0
2016-Nov-25 14:33N 40°47' W 073°54'0 0.0
2016-Nov-25 13:33N 40°47' W 073°54'0 0.0
2016-Nov-25 12:33N 40°47' W 073°54'0 0.0
2016-Nov-25 09:33N 40°47' W 073°54'0 0.2
2016-Nov-25 08:33N 40°47' W 073°54'0 0.3
2016-Nov-25 07:31N 40°48' W 073°54'0 0.2
2016-Nov-25 06:33N 40°48' W 073°54'0 0.0
2016-Nov-25 05:33N 40°48' W 073°54'0 0.1
2016-Nov-25 04:32N 40°48' W 073°54'0 0.4
2016-Nov-25 03:33N 40°47' W 073°54'0 0.1
2016-Nov-25 02:33N 40°47' W 073°54'0 0.1
2016-Nov-25 01:32N 40°47' W 073°54'0 0.1
2016-Nov-25 00:33N 40°47' W 073°54'0 0.0
2016-Nov-24 23:33N 40°47' W 073°54'0 0.1
2016-Nov-24 22:33N 40°47' W 073°54'0 0.0
2016-Nov-24 21:33N 40°47' W 073°54'1 0.7
2016-Nov-24 20:32N 40°48' W 073°54'0 0.4
2016-Nov-24 19:33N 40°47' W 073°54'0 0.2
2016-Nov-24 18:33N 40°47' W 073°54'1 1.0
2016-Nov-24 17:33N 40°48' W 073°54'1 1.0
2016-Nov-24 16:33N 40°47' W 073°54'0 0.3
2016-Nov-24 15:33N 40°48' W 073°54'0 0.1
2016-Nov-24 14:33N 40°48' W 073°54'0 0.0
2016-Nov-24 13:31N 40°48' W 073°54'0 0.0
2016-Nov-24 12:33N 40°48' W 073°54'0 0.0
2016-Nov-24 11:29N 40°48' W 073°54'0 0.1
2016-Nov-24 10:31N 40°48' W 073°54'0 0.0
2016-Nov-24 09:32N 40°48' W 073°54'0 0.0
2016-Nov-24 08:20N 40°48' W 073°54'0 0.0
2016-Nov-24 07:22N 40°48' W 073°54'0 0.0
2016-Nov-24 06:32N 40°48' W 073°54'1 0.7
2016-Nov-24 05:33N 40°48' W 073°55'9 9.1
2016-Nov-24 04:33N 40°41' W 074°02'2 1.7
2016-Nov-24 03:33N 40°41' W 074°04'0 0.2
2016-Nov-24 02:33N 40°40' W 074°04'5 4.9
2016-Nov-24 01:33N 40°36' W 074°03'7 0.8
2016-Nov-23 16:09N 40°35' W 074°12'3 5.5
2016-Nov-23 15:33N 40°39' W 074°11'4 3.5
2016-Nov-23 14:33N 40°39' W 074°07'  
Track history (hours):
 
Tides and Currents Weather Stations Pressure Air Temp Water Temp Dewpoint Dewpoint Depression Visibility Wind Speed Wind Dir Waves Ship Positions

Shelby

Owner: WEEKS MARINE, INC., CRANFORD, NJ. More information available from US FCC via Universal Licensing System and Coast Guard Vessel Documentation Center.

Last reported at 2016-Dec-03 13:33 UTC. Time now 2016-Dec-03 13:44 UTC.
Position N 39°44' W 075°30'.

Length 22 m; draft 3.1 m.

Type: Tug. MMSI: 366902344.

Date/timePositionNaut miles runAvg speedWind from/ knotsBaromVisibWave heightAir tempDewpointWater temp
2016-Dec-03 13:33N 39°44' W 075°30'0 0.0
2016-Dec-03 12:33N 39°44' W 075°30'0 0.0
2016-Dec-03 11:33N 39°44' W 075°30'0 0.1
2016-Dec-03 10:33N 39°44' W 075°30'0 0.1
2016-Dec-03 09:33N 39°44' W 075°30'0 0.0
2016-Dec-03 08:33N 39°44' W 075°30'0 0.0
2016-Dec-03 07:33N 39°44' W 075°30'0 0.1
2016-Dec-03 06:34N 39°44' W 075°30'0 0.1
2016-Dec-03 05:33N 39°44' W 075°30'0 0.0
2016-Dec-03 04:33N 39°44' W 075°30'0 0.0
2016-Dec-03 03:33N 39°44' W 075°30'5 4.5
2016-Dec-03 02:33N 39°48' W 075°26'5 4.5
2016-Dec-03 01:33N 39°44' W 075°30'0 0.1
2016-Dec-03 00:33N 39°44' W 075°30'0 0.2
2016-Dec-02 23:33N 39°44' W 075°30'0 0.1
2016-Dec-02 22:33N 39°44' W 075°30'5 4.7
2016-Dec-02 21:33N 39°48' W 075°26'6 5.7
2016-Dec-02 20:33N 39°51' W 075°19'5 5.0
2016-Dec-02 19:33N 39°52' W 075°13'5 4.9
2016-Dec-02 18:33N 39°55' W 075°08'3 2.7
2016-Dec-02 17:33N 39°57' W 075°08'0 0.0
2016-Dec-02 16:34N 39°57' W 075°08'0 0.0
2016-Dec-02 15:33N 39°57' W 075°08'0 0.0
2016-Dec-02 14:33N 39°57' W 075°08'0 0.0
2016-Dec-02 13:33N 39°57' W 075°08'0 0.0
2016-Dec-02 12:33N 39°57' W 075°08'0 0.0
2016-Dec-02 11:33N 39°57' W 075°08'0 0.0
2016-Dec-02 10:34N 39°57' W 075°08'0 0.0
2016-Dec-02 09:33N 39°57' W 075°08'0 0.0
2016-Dec-02 08:33N 39°57' W 075°08'1 1.2
2016-Dec-02 07:33N 39°58' W 075°07'5 4.6
2016-Dec-02 06:33N 40°01' W 075°02'2 1.9
2016-Dec-02 05:33N 40°02' W 074°60'0 0.0
2016-Dec-02 04:33N 40°02' W 074°60'0 0.0
2016-Dec-02 03:33N 40°02' W 074°60'0 0.0
2016-Dec-02 02:33N 40°02' W 074°60'0 0.0
2016-Dec-02 01:33N 40°02' W 074°60'0 0.0
2016-Dec-02 00:33N 40°02' W 074°60'0 0.0
2016-Dec-01 23:34N 40°02' W 074°60'0 0.0
2016-Dec-01 22:33N 40°02' W 074°60'0 0.0
2016-Dec-01 21:33N 40°02' W 074°60'0 0.0
2016-Dec-01 20:33N 40°02' W 074°60'0 0.0
2016-Dec-01 19:33N 40°02' W 074°60'0 0.0
2016-Dec-01 18:33N 40°02' W 074°60'0 0.0
2016-Dec-01 17:33N 40°02' W 074°60'0 0.0
2016-Dec-01 16:33N 40°02' W 074°60'0 0.0
2016-Dec-01 15:33N 40°02' W 074°60'0 0.0
2016-Dec-01 14:33N 40°02' W 074°60'0 0.0
2016-Dec-01 13:33N 40°02' W 074°60'0 0.0
2016-Dec-01 12:33N 40°02' W 074°60'0 0.0
2016-Dec-01 11:33N 40°02' W 074°60'0 0.0
2016-Dec-01 10:33N 40°02' W 074°60'0 0.0
2016-Dec-01 09:33N 40°02' W 074°60'0 0.0
2016-Dec-01 08:33N 40°02' W 074°60'0 0.0
2016-Dec-01 07:33N 40°02' W 074°60'0 0.1
2016-Dec-01 06:33N 40°02' W 074°60'0 0.1
2016-Dec-01 05:33N 40°02' W 074°60'0 0.0
2016-Dec-01 04:33N 40°02' W 074°60'0 0.0
2016-Dec-01 03:33N 40°02' W 074°60'0 0.0
2016-Dec-01 02:33N 40°02' W 074°60'0 0.0
2016-Dec-01 01:33N 40°02' W 074°60'0 0.0
2016-Dec-01 00:33N 40°02' W 074°60'0 0.0
2016-Nov-30 23:33N 40°02' W 074°60'0 0.0
2016-Nov-30 22:33N 40°02' W 074°60'0 0.0
2016-Nov-30 21:33N 40°02' W 074°60'0 0.0
2016-Nov-30 20:33N 40°02' W 074°60'0 0.0
2016-Nov-30 19:33N 40°02' W 074°60'0 0.2
2016-Nov-30 18:33N 40°02' W 074°60'0 0.1
2016-Nov-30 17:33N 40°02' W 074°60'0 0.1
2016-Nov-30 16:33N 40°02' W 074°60'0 0.0
2016-Nov-30 15:33N 40°02' W 074°60'0 0.0
2016-Nov-30 14:34N 40°02' W 074°60'0 0.0
2016-Nov-30 13:33N 40°02' W 074°60'0 0.0
2016-Nov-30 12:33N 40°02' W 074°60'0 0.0
2016-Nov-30 11:33N 40°02' W 074°60'0 0.0
2016-Nov-30 10:33N 40°02' W 074°60'0 0.0
2016-Nov-30 09:33N 40°02' W 074°60'0 0.0
2016-Nov-30 07:32N 40°02' W 074°60'0 0.0
2016-Nov-30 05:22N 40°02' W 074°60'0 0.0
2016-Nov-30 04:33N 40°02' W 074°60'0 0.0
2016-Nov-30 03:33N 40°02' W 074°60'0 0.0
2016-Nov-30 02:33N 40°02' W 074°60'0 0.0
2016-Nov-30 01:34N 40°02' W 074°60'0 0.0
2016-Nov-30 00:33N 40°02' W 074°60'0 0.0
2016-Nov-29 23:33N 40°02' W 074°60'0 0.0
2016-Nov-29 22:33N 40°02' W 074°60'0 0.0
2016-Nov-29 21:33N 40°02' W 074°60'0 0.0
2016-Nov-29 20:33N 40°02' W 074°60'0 0.0
2016-Nov-29 19:33N 40°02' W 074°60'0 0.0
2016-Nov-29 18:33N 40°02' W 074°60'0 0.1
2016-Nov-29 17:33N 40°02' W 074°60'0 0.0
2016-Nov-29 16:33N 40°02' W 074°60'0 0.0
2016-Nov-29 15:33N 40°02' W 074°60'0 0.0
2016-Nov-29 14:33N 40°02' W 074°60'0 0.0
2016-Nov-29 13:33N 40°02' W 074°60'0 0.0
2016-Nov-29 12:33N 40°02' W 074°60'0 0.3
2016-Nov-29 11:33N 40°02' W 075°00'4 3.7
2016-Nov-29 10:34N 39°59' W 075°04'4 3.6
2016-Nov-29 09:33N 39°57' W 075°08'0 0.0
2016-Nov-29 08:33N 39°57' W 075°08'0 0.0
2016-Nov-29 07:33N 39°57' W 075°08'0 0.0
2016-Nov-29 06:33N 39°57' W 075°08'0 0.0
2016-Nov-29 05:33N 39°57' W 075°08'0 0.0
2016-Nov-29 04:33N 39°57' W 075°08'0 0.0
2016-Nov-29 03:33N 39°57' W 075°08'0 0.0
2016-Nov-29 02:33N 39°57' W 075°08'0 0.0
2016-Nov-29 01:33N 39°57' W 075°08'0 0.0
2016-Nov-29 00:33N 39°57' W 075°08'0 0.0
2016-Nov-28 23:33N 39°57' W 075°08'0 0.0
2016-Nov-28 22:33N 39°57' W 075°08'0 0.0
2016-Nov-28 21:33N 39°57' W 075°08'0 0.0
2016-Nov-28 20:33N 39°57' W 075°08'0 0.0
2016-Nov-28 19:33N 39°57' W 075°08'0 0.0
2016-Nov-28 18:34N 39°57' W 075°08'0 0.0
2016-Nov-28 17:33N 39°57' W 075°08'0 0.0
2016-Nov-28 16:34N 39°57' W 075°08'0 0.0
2016-Nov-28 15:33N 39°57' W 075°08'0 0.0
2016-Nov-28 14:33N 39°57' W 075°08'0 0.0
2016-Nov-28 13:33N 39°57' W 075°08'0 0.0
2016-Nov-28 12:33N 39°57' W 075°08'0 0.0
2016-Nov-28 11:33N 39°57' W 075°08'0 0.0
2016-Nov-28 10:33N 39°57' W 075°08'0 0.0
2016-Nov-28 09:33N 39°57' W 075°08'0 0.0
2016-Nov-28 08:34N 39°57' W 075°08'0 0.0
2016-Nov-28 07:33N 39°57' W 075°08'0 0.0
2016-Nov-28 06:33N 39°57' W 075°08'3 3.4
2016-Nov-28 05:33N 39°54' W 075°08'1110.6
2016-Nov-28 04:33N 39°50' W 075°21'1 1.1
2016-Nov-28 03:33N 39°50' W 075°22'0 0.2
2016-Nov-28 02:33N 39°50' W 075°22'2 2.1
2016-Nov-28 01:33N 39°48' W 075°24'2 2.1
2016-Nov-28 00:33N 39°50' W 075°22'2 1.5
2016-Nov-27 23:34N 39°49' W 075°23'5 4.6
2016-Nov-27 22:33N 39°46' W 075°28'5 5.4
2016-Nov-27 21:33N 39°41' W 075°31'5 5.1
2016-Nov-27 20:33N 39°37' W 075°35'9 9.1
2016-Nov-27 19:33N 39°45' W 075°29'7 7.4
2016-Nov-27 18:33N 39°50' W 075°22'0 0.0
2016-Nov-27 17:33N 39°50' W 075°22'0 0.2
2016-Nov-27 16:31N 39°49' W 075°22'2 2.2
2016-Nov-27 15:34N 39°48' W 075°24'6 6.4
2016-Nov-27 14:33N 39°44' W 075°30'8 8.4
2016-Nov-27 13:33N 39°36' W 075°34'9 8.6
2016-Nov-27 12:33N 39°28' W 075°34'8 8.4
2016-Nov-27 11:33N 39°21' W 075°27'9 8.6
2016-Nov-27 10:33N 39°15' W 075°19'8 8.3
2016-Nov-27 09:33N 39°08' W 075°14'52 5.2
2016-Nov-26 23:33N 39°30' W 074°13'9 8.8
2016-Nov-26 22:33N 39°37' W 074°07'9 8.7
2016-Nov-26 21:33N 39°46' W 074°04'43 8.7
2016-Nov-26 16:33N 40°29' W 073°58'8 8.6
2016-Nov-26 15:33N 40°36' W 074°03'4 4.1
2016-Nov-26 14:33N 40°40' W 074°04'0 0.2
2016-Nov-26 13:33N 40°40' W 074°04'1 1.2
2016-Nov-26 12:34N 40°39' W 074°03'1 1.2
2016-Nov-26 11:33N 40°41' W 074°04'0 0.1
2016-Nov-26 10:33N 40°40' W 074°04'0 0.0
2016-Nov-26 09:33N 40°40' W 074°04'0 0.0
2016-Nov-26 08:33N 40°40' W 074°04'0 0.0
2016-Nov-26 07:33N 40°40' W 074°04'0 0.0
2016-Nov-26 06:33N 40°40' W 074°04'0 0.0
2016-Nov-26 05:33N 40°40' W 074°04'0 0.0
2016-Nov-26 04:33N 40°40' W 074°04'0 0.0
2016-Nov-26 03:33N 40°40' W 074°04'0 0.1
2016-Nov-26 02:34N 40°41' W 074°04'0 0.1
2016-Nov-26 01:33N 40°40' W 074°04'0 0.0
2016-Nov-26 00:33N 40°40' W 074°04'0 0.0
2016-Nov-25 23:33N 40°40' W 074°04'0 0.1
2016-Nov-25 22:33N 40°40' W 074°04'0 0.0
2016-Nov-25 21:34N 40°40' W 074°04'0 0.1
2016-Nov-25 20:33N 40°41' W 074°04'4 4.2
2016-Nov-25 19:33N 40°42' W 073°59'5 5.2
2016-Nov-25 18:32N 40°47' W 073°55'1 1.5
2016-Nov-25 17:32N 40°47' W 073°54'0 0.0
2016-Nov-25 16:33N 40°47' W 073°54'0 0.0
2016-Nov-25 15:33N 40°47' W 073°54'0 0.0
2016-Nov-25 14:33N 40°47' W 073°54'0 0.0
2016-Nov-25 13:33N 40°47' W 073°54'0 0.0
2016-Nov-25 12:33N 40°47' W 073°54'0 0.0
2016-Nov-25 09:33N 40°47' W 073°54'0 0.2
2016-Nov-25 08:33N 40°47' W 073°54'0 0.3
2016-Nov-25 07:31N 40°48' W 073°54'0 0.2
2016-Nov-25 06:33N 40°48' W 073°54'0 0.0
2016-Nov-25 05:33N 40°48' W 073°54'0 0.1
2016-Nov-25 04:32N 40°48' W 073°54'0 0.4
2016-Nov-25 03:33N 40°47' W 073°54'0 0.1
2016-Nov-25 02:33N 40°47' W 073°54'0 0.1
2016-Nov-25 01:32N 40°47' W 073°54'0 0.1
2016-Nov-25 00:33N 40°47' W 073°54'0 0.0
2016-Nov-24 23:33N 40°47' W 073°54'0 0.1
2016-Nov-24 22:33N 40°47' W 073°54'0 0.0
2016-Nov-24 21:33N 40°47' W 073°54'1 0.7
2016-Nov-24 20:32N 40°48' W 073°54'0 0.4
2016-Nov-24 19:33N 40°47' W 073°54'0 0.2
2016-Nov-24 18:33N 40°47' W 073°54'1 1.0
2016-Nov-24 17:33N 40°48' W 073°54'1 1.0
2016-Nov-24 16:33N 40°47' W 073°54'0 0.3
2016-Nov-24 15:33N 40°48' W 073°54'0 0.1
2016-Nov-24 14:33N 40°48' W 073°54'0 0.0
2016-Nov-24 13:31N 40°48' W 073°54'0 0.0
2016-Nov-24 12:33N 40°48' W 073°54'0 0.0
2016-Nov-24 11:29N 40°48' W 073°54'0 0.1
2016-Nov-24 10:31N 40°48' W 073°54'0 0.0
2016-Nov-24 09:32N 40°48' W 073°54'0 0.0
2016-Nov-24 08:20N 40°48' W 073°54'0 0.0
2016-Nov-24 07:22N 40°48' W 073°54'0 0.0
2016-Nov-24 06:32N 40°48' W 073°54'1 0.7
2016-Nov-24 05:33N 40°48' W 073°55'9 9.1
2016-Nov-24 04:33N 40°41' W 074°02'2 1.7
2016-Nov-24 03:33N 40°41' W 074°04'0 0.2
2016-Nov-24 02:33N 40°40' W 074°04'5 4.9
2016-Nov-24 01:33N 40°36' W 074°03'7 0.8
2016-Nov-23 16:09N 40°35' W 074°12'3 5.5
2016-Nov-23 15:33N 40°39' W 074°11'4 3.5
2016-Nov-23 14:33N 40°39' W 074°07'  

Dump ship's entire track history